createdAt,value
2018-11-29T00:00:38.291Z,-1.28
2018-11-29T00:03:08.320Z,-1.37
2018-11-29T00:05:37.336Z,-1.57
2018-11-29T00:08:06.366Z,-1.30
2018-11-29T00:10:35.454Z,-1.25
2018-11-29T00:13:04.572Z,-1.24
2018-11-29T00:15:33.552Z,-1.22
2018-11-29T00:18:02.503Z,-1.21
2018-11-29T00:20:31.504Z,-1.28
2018-11-29T00:23:00.444Z,-1.24
2018-11-29T00:25:29.404Z,-1.27
2018-11-29T00:27:58.353Z,-1.32
2018-11-29T00:30:27.343Z,-1.31
2018-11-29T00:32:56.629Z,-1.28
2018-11-29T00:35:25.568Z,-1.30
2018-11-29T00:37:54.516Z,-1.37
2018-11-29T00:40:24.294Z,-1.52
2018-11-29T00:42:53.432Z,-1.52
2018-11-29T00:45:24.109Z,-1.58
2018-11-29T00:47:53.301Z,-1.60
2018-11-29T00:50:22.447Z,-1.64
2018-11-29T00:52:51.900Z,-1.61
2018-11-29T00:55:22.996Z,-1.64
2018-11-29T00:57:53.021Z,-1.75
2018-11-29T01:00:25.612Z,-1.76
2018-11-29T01:02:54.682Z,-1.79
2018-11-29T01:05:23.628Z,-1.78
2018-11-29T01:07:52.570Z,-1.87
2018-11-29T01:10:21.515Z,-1.93
2018-11-29T01:12:50.465Z,-1.95
2018-11-29T01:15:20.335Z,-1.99
2018-11-29T01:17:50.193Z,-2.05
2018-11-29T01:20:20.817Z,-2.02
2018-11-29T01:22:49.778Z,-2.00
2018-11-29T01:25:19.028Z,-2.01
2018-11-29T01:27:49.992Z,-2.03
2018-11-29T01:30:19.845Z,-1.95
2018-11-29T01:32:48.780Z,-1.94
2018-11-29T01:35:19.492Z,-1.91
2018-11-29T01:37:48.706Z,-1.86
2018-11-29T01:40:22.605Z,-1.79
2018-11-29T01:42:52.916Z,-1.73
2018-11-29T01:45:21.872Z,-1.71
2018-11-29T01:47:50.813Z,-1.66
2018-11-29T01:50:19.810Z,-1.62
2018-11-29T01:52:48.765Z,-1.59
2018-11-29T01:55:17.718Z,-1.65
2018-11-29T01:57:46.665Z,-1.68
2018-11-29T02:00:18.400Z,-1.72
2018-11-29T02:02:48.575Z,-1.73
2018-11-29T02:05:17.540Z,-1.67
2018-11-29T02:07:46.490Z,-1.68
2018-11-29T02:10:21.296Z,-1.65
2018-11-29T02:12:50.309Z,-1.65
2018-11-29T02:15:19.250Z,-1.69
2018-11-29T02:17:48.239Z,-1.72
2018-11-29T02:20:17.958Z,-1.67
2018-11-29T02:22:47.065Z,-1.69
2018-11-29T02:25:16.033Z,-1.71
2018-11-29T02:27:44.954Z,-1.77
2018-11-29T02:30:20.852Z,-1.80
2018-11-29T02:32:49.812Z,-1.81
2018-11-29T02:35:18.785Z,-1.83
2018-11-29T02:37:47.725Z,-1.84
2018-11-29T02:40:17.520Z,-1.77
2018-11-29T02:42:47.102Z,-1.78
2018-11-29T02:45:33.148Z,-1.83
2018-11-29T02:48:02.095Z,-1.79
2018-11-29T02:53:14.401Z,-1.80
2018-11-29T02:55:43.331Z,-1.87
2018-11-29T02:58:12.386Z,-1.86
2018-11-29T03:00:41.334Z,-1.78
2018-11-29T03:03:10.265Z,-1.74
2018-11-29T03:05:39.195Z,-1.74
2018-11-29T03:08:08.120Z,-1.73
2018-11-29T03:10:37.054Z,-1.70
2018-11-29T03:13:06.249Z,-1.68
2018-11-29T03:15:35.170Z,-1.67
2018-11-29T03:18:04.180Z,-1.65
2018-11-29T03:20:33.133Z,-1.67
2018-11-29T03:23:02.105Z,-1.65
2018-11-29T03:25:31.035Z,-1.68
2018-11-29T03:28:00.023Z,-1.70
2018-11-29T03:30:28.969Z,-1.74
2018-11-29T03:32:57.893Z,-1.78
2018-11-29T03:35:26.828Z,-1.83
2018-11-29T03:37:55.761Z,-1.88
2018-11-29T03:40:24.729Z,-2.00
2018-11-29T03:42:53.656Z,-2.02
2018-11-29T03:45:22.579Z,-2.00
2018-11-29T03:47:51.544Z,-2.06
2018-11-29T03:50:20.481Z,-2.06
2018-11-29T03:52:49.441Z,-2.11
2018-11-29T03:55:18.361Z,-2.07
2018-11-29T03:57:47.342Z,-2.06
2018-11-29T04:00:17.265Z,-2.03
2018-11-29T04:02:47.123Z,-2.07
2018-11-29T04:05:16.137Z,-2.04
2018-11-29T04:07:45.064Z,-2.09
2018-11-29T04:10:14.950Z,-2.12
2018-11-29T04:12:43.856Z,-2.14
2018-11-29T04:15:13.856Z,-2.09
2018-11-29T04:17:42.765Z,-2.07
2018-11-29T04:20:13.824Z,-2.05
2018-11-29T04:22:42.831Z,-2.03
2018-11-29T04:25:12.884Z,-2.02
2018-11-29T04:27:41.850Z,-2.05
2018-11-29T04:30:12.292Z,-2.06
2018-11-29T04:32:41.240Z,-2.05
2018-11-29T04:35:10.801Z,-2.00
2018-11-29T04:37:39.950Z,-1.99
2018-11-29T04:40:12.372Z,-1.99
2018-11-29T04:42:41.352Z,-1.98
2018-11-29T04:45:15.265Z,-2.03
2018-11-29T04:47:44.264Z,-2.01
2018-11-29T04:50:13.242Z,-1.99
2018-11-29T04:52:42.245Z,-1.93
2018-11-29T04:55:11.344Z,-1.96
2018-11-29T04:57:40.336Z,-1.97
2018-11-29T05:00:14.168Z,-1.99
2018-11-29T05:02:43.098Z,-1.98
2018-11-29T05:05:12.656Z,-2.07
2018-11-29T05:07:41.577Z,-2.08
2018-11-29T05:10:12.069Z,-2.14
2018-11-29T05:12:40.999Z,-2.11
2018-11-29T05:15:11.374Z,-2.16
2018-11-29T05:17:40.373Z,-2.14
2018-11-29T05:20:09.568Z,-2.13
2018-11-29T05:22:38.509Z,-2.13
2018-11-29T05:25:08.475Z,-2.18
2018-11-29T05:27:37.789Z,-2.18
2018-11-29T05:30:13.636Z,-2.22
2018-11-29T05:32:42.575Z,-2.19
2018-11-29T05:35:12.536Z,-2.15
2018-11-29T05:37:41.639Z,-2.16
2018-11-29T05:40:11.964Z,-2.17
2018-11-29T05:42:41.012Z,-2.16
2018-11-29T05:45:10.808Z,-2.09
2018-11-29T05:47:39.754Z,-2.17
2018-11-29T05:50:11.786Z,-2.18
2018-11-29T05:52:41.870Z,-2.20
2018-11-29T05:55:11.244Z,-2.26
2018-11-29T05:57:40.179Z,-2.31
2018-11-29T06:00:11.992Z,-2.23
2018-11-29T06:02:40.934Z,-2.19
2018-11-29T06:05:10.903Z,-2.15
2018-11-29T06:07:39.840Z,-2.08
2018-11-29T06:10:08.807Z,-2.06
2018-11-29T06:12:38.136Z,-2.00
2018-11-29T06:15:09.693Z,-1.98
2018-11-29T06:17:38.667Z,-1.97
2018-11-29T06:20:10.809Z,-1.94
2018-11-29T06:22:39.780Z,-1.89
2018-11-29T06:25:08.751Z,-1.86
2018-11-29T06:27:37.692Z,-1.87
2018-11-29T06:30:13.944Z,-1.84
2018-11-29T06:32:42.894Z,-1.76
2018-11-29T06:35:12.120Z,-1.70
2018-11-29T06:37:41.041Z,-1.61
2018-11-29T06:40:14.843Z,-1.61
2018-11-29T06:42:43.868Z,-1.51
2018-11-29T06:45:17.009Z,-1.46
2018-11-29T06:47:46.086Z,-1.47
2018-11-29T06:50:15.397Z,-1.55
2018-11-29T06:52:45.335Z,-1.60
2018-11-29T06:55:18.756Z,-1.44
2018-11-29T06:57:47.680Z,-1.39
2018-11-29T07:00:33.712Z,-1.32
2018-11-29T07:03:02.665Z,-1.25
2018-11-29T07:05:31.639Z,-1.24
2018-11-29T07:08:00.579Z,-1.11
2018-11-29T07:10:32.331Z,-1.04
2018-11-29T07:13:01.550Z,-0.88
2018-11-29T07:15:30.516Z,-0.88
2018-11-29T07:17:59.461Z,-0.82
2018-11-29T07:20:28.457Z,-0.73
2018-11-29T07:22:57.404Z,-0.69
2018-11-29T07:25:26.347Z,-0.50
2018-11-29T07:27:55.353Z,-0.44
2018-11-29T07:30:24.399Z,-0.34
2018-11-29T07:32:53.352Z,-0.26
2018-11-29T07:35:22.437Z,-0.20
2018-11-29T07:37:51.376Z,-0.14
2018-11-29T07:40:20.598Z,-0.16
2018-11-29T07:42:50.885Z,-0.30
2018-11-29T07:45:20.753Z,-0.27
2018-11-29T07:47:49.714Z,-0.08
2018-11-29T07:50:20.846Z,0.17
2018-11-29T07:52:49.889Z,0.30
2018-11-29T07:55:20.669Z,0.38
2018-11-29T07:57:50.729Z,0.57
2018-11-29T08:00:19.670Z,0.70
2018-11-29T08:02:48.620Z,0.86
2018-11-29T08:05:18.167Z,0.92
2018-11-29T08:07:47.990Z,1.07
2018-11-29T08:10:18.680Z,1.33
2018-11-29T08:12:47.731Z,1.46
2018-11-29T08:15:17.952Z,1.55
2018-11-29T08:17:46.932Z,1.59
2018-11-29T08:20:17.069Z,1.56
2018-11-29T08:22:45.991Z,1.66
2018-11-29T08:25:14.944Z,1.61
2018-11-29T08:27:43.875Z,1.66
2018-11-29T08:30:15.710Z,1.90
2018-11-29T08:32:44.659Z,2.09
2018-11-29T08:35:14.329Z,2.22
2018-11-29T08:37:44.529Z,2.33
2018-11-29T08:40:21.740Z,2.21
2018-11-29T08:42:50.795Z,2.29
2018-11-29T08:45:19.766Z,2.32
2018-11-29T08:47:48.768Z,2.23
2018-11-29T08:50:17.729Z,2.15
2018-11-29T08:52:47.231Z,1.95
2018-11-29T08:55:17.353Z,2.16
2018-11-29T08:57:46.907Z,2.25
2018-11-29T09:00:16.942Z,2.20
2018-11-29T09:02:45.895Z,2.33
2018-11-29T09:05:15.133Z,2.31
2018-11-29T09:07:45.021Z,2.18
2018-11-29T09:10:17.866Z,2.37
2018-11-29T09:12:46.843Z,2.28
2018-11-29T09:15:16.613Z,2.34
2018-11-29T09:17:45.676Z,2.39
2018-11-29T09:20:18.674Z,2.55
2018-11-29T09:22:49.423Z,2.44
2018-11-29T09:25:19.488Z,2.42
2018-11-29T09:27:48.484Z,2.39
2018-11-29T09:30:19.188Z,2.33
2018-11-29T09:32:49.124Z,2.30
2018-11-29T09:35:18.073Z,2.43
2018-11-29T09:37:47.017Z,2.65
2018-11-29T09:40:19.321Z,2.70
2018-11-29T09:42:48.349Z,2.66
2018-11-29T09:45:19.338Z,2.64
2018-11-29T09:47:50.212Z,2.47
2018-11-29T09:50:19.298Z,2.35
2018-11-29T09:52:48.315Z,2.21
2018-11-29T09:55:18.073Z,2.11
2018-11-29T09:57:47.930Z,2.19
2018-11-29T10:00:27.151Z,2.36
2018-11-29T10:02:52.992Z,2.53
2018-11-29T10:05:21.964Z,2.77
2018-11-29T10:07:50.885Z,3.13
2018-11-29T10:10:20.062Z,3.60
2018-11-29T10:12:49.051Z,3.81
2018-11-29T10:15:18.026Z,4.17
2018-11-29T10:17:46.978Z,4.51
2018-11-29T10:20:16.000Z,4.31
2018-11-29T10:22:44.938Z,4.29
2018-11-29T10:25:15.378Z,3.95
2018-11-29T10:27:47.723Z,3.87
2018-11-29T10:30:21.603Z,4.20
2018-11-29T10:32:50.582Z,4.19
2018-11-29T10:35:19.507Z,3.97
2018-11-29T10:37:48.415Z,3.60
2018-11-29T10:40:17.344Z,3.55
2018-11-29T10:42:46.265Z,3.39
2018-11-29T10:45:16.721Z,3.51
2018-11-29T10:47:52.305Z,3.45
2018-11-29T10:50:16.134Z,3.42
2018-11-29T10:52:45.066Z,2.99
2018-11-29T10:55:15.242Z,2.94
2018-11-29T10:57:44.230Z,3.22
2018-11-29T11:00:29.500Z,3.18
2018-11-29T11:03:10.504Z,3.28
2018-11-29T11:05:39.506Z,3.43
2018-11-29T11:08:09.294Z,3.55
2018-11-29T11:10:39.114Z,3.72
2018-11-29T11:13:08.156Z,3.84
2018-11-29T11:15:37.180Z,4.03
2018-11-29T11:18:07.209Z,4.12
2018-11-29T11:20:36.169Z,3.76
2018-11-29T11:23:05.177Z,3.66
2018-11-29T11:25:34.094Z,3.52
2018-11-29T11:28:03.275Z,3.72
2018-11-29T11:30:32.216Z,3.86
2018-11-29T11:33:01.144Z,3.50
2018-11-29T11:35:30.952Z,3.51
2018-11-29T11:37:59.870Z,3.52
2018-11-29T11:40:28.817Z,3.43
2018-11-29T11:42:57.736Z,3.02
2018-11-29T11:45:26.671Z,2.71
2018-11-29T11:47:55.612Z,2.75
2018-11-29T11:50:25.515Z,2.47
2018-11-29T11:52:55.481Z,2.13
2018-11-29T11:55:29.893Z,1.83
2018-11-29T11:57:53.464Z,1.78
2018-11-29T12:00:25.316Z,1.86
2018-11-29T12:03:03.640Z,2.19
2018-11-29T12:05:32.567Z,2.02
2018-11-29T12:08:01.502Z,1.97
2018-11-29T12:10:30.429Z,2.07
2018-11-29T12:12:59.384Z,2.18
2018-11-29T12:15:28.309Z,2.09
2018-11-29T12:17:57.223Z,2.06
2018-11-29T12:20:26.170Z,1.76
2018-11-29T12:22:55.092Z,1.87
2018-11-29T12:25:24.118Z,2.03
2018-11-29T12:27:53.351Z,1.90
2018-11-29T12:30:25.682Z,1.61
2018-11-29T12:32:57.180Z,1.61
2018-11-29T12:35:26.141Z,1.54
2018-11-29T12:37:55.070Z,1.28
2018-11-29T12:40:24.061Z,1.22
2018-11-29T12:42:52.997Z,0.96
2018-11-29T12:45:21.912Z,0.73
2018-11-29T12:47:50.845Z,0.89
2018-11-29T12:50:21.778Z,0.90
2018-11-29T12:52:50.713Z,0.88
2018-11-29T12:55:20.685Z,0.90
2018-11-29T12:58:04.537Z,0.93
2018-11-29T13:00:20.713Z,0.89
2018-11-29T13:02:53.565Z,1.01
2018-11-29T13:05:22.595Z,1.14
2018-11-29T13:07:51.600Z,1.17
2018-11-29T13:10:21.462Z,1.35
2018-11-29T13:12:50.458Z,1.22
2018-11-29T13:15:21.921Z,1.28
2018-11-29T13:17:50.933Z,1.24
2018-11-29T13:20:19.911Z,1.07
2018-11-29T13:22:48.841Z,0.97
2018-11-29T13:25:19.629Z,0.84
2018-11-29T13:27:48.716Z,0.60
2018-11-29T13:30:20.542Z,0.51
2018-11-29T13:32:50.695Z,0.48
2018-11-29T13:35:21.853Z,0.35
2018-11-29T13:37:54.874Z,0.35
2018-11-29T13:40:23.939Z,0.17
2018-11-29T13:42:52.941Z,-0.01
2018-11-29T13:45:21.879Z,0.01
2018-11-29T13:47:50.873Z,-0.16
2018-11-29T13:50:19.843Z,-0.40
2018-11-29T13:52:49.064Z,-0.63
2018-11-29T13:55:18.478Z,-0.75
2018-11-29T13:57:48.997Z,-0.91
2018-11-29T14:00:22.322Z,-1.04
2018-11-29T14:02:54.869Z,-1.14
2018-11-29T14:05:24.063Z,-1.20
2018-11-29T14:07:53.265Z,-1.35
2018-11-29T14:10:23.700Z,-1.43
2018-11-29T14:12:53.925Z,-1.54
2018-11-29T14:15:28.075Z,-1.62
2018-11-29T14:17:57.270Z,-1.76
2018-11-29T14:20:26.516Z,-1.84
2018-11-29T14:22:56.521Z,-1.94
2018-11-29T14:25:25.707Z,-1.97
2018-11-29T14:27:57.033Z,-2.02
2018-11-29T14:30:30.196Z,-2.09
2018-11-29T14:33:00.497Z,-2.14
2018-11-29T14:35:29.693Z,-2.15
2018-11-29T14:37:58.895Z,-2.16
2018-11-29T14:40:29.434Z,-2.16
2018-11-29T14:42:58.704Z,-2.20
2018-11-29T14:45:28.319Z,-2.27
2018-11-29T14:47:57.704Z,-2.31
2018-11-29T14:50:29.713Z,-2.40
2018-11-29T14:52:58.988Z,-2.43
2018-11-29T14:55:28.141Z,-2.46
2018-11-29T14:57:57.324Z,-2.51
2018-11-29T15:00:26.494Z,-2.54
2018-11-29T15:02:56.202Z,-2.55
2018-11-29T15:05:27.624Z,-2.54
2018-11-29T15:07:56.771Z,-2.57
2018-11-29T15:10:25.935Z,-2.59
2018-11-29T15:12:55.095Z,-2.64
2018-11-29T15:15:24.270Z,-2.65
2018-11-29T15:17:54.416Z,-2.70
2018-11-29T15:20:27.353Z,-2.78
2018-11-29T15:22:56.299Z,-2.77
2018-11-29T15:25:25.567Z,-2.80
2018-11-29T15:27:54.725Z,-2.77
2018-11-29T15:30:24.340Z,-2.81
2018-11-29T15:32:53.497Z,-2.80
2018-11-29T15:35:22.640Z,-2.81
2018-11-29T15:37:51.819Z,-2.88
2018-11-29T15:40:20.988Z,-2.87
2018-11-29T15:42:50.480Z,-2.86
2018-11-29T15:45:20.840Z,-2.79
2018-11-29T15:47:50.118Z,-2.79
2018-11-29T15:50:19.370Z,-2.77
2018-11-29T15:52:48.624Z,-2.76
2018-11-29T15:55:19.874Z,-2.79
2018-11-29T15:57:49.833Z,-2.77
2018-11-29T16:00:20.122Z,-2.79
2018-11-29T16:02:49.790Z,-2.75
2018-11-29T16:05:19.011Z,-2.75
2018-11-29T16:07:48.170Z,-2.80
2018-11-29T16:10:21.644Z,-2.78
2018-11-29T16:12:50.876Z,-2.73
2018-11-29T16:15:20.755Z,-2.74
2018-11-29T16:17:50.860Z,-2.73
2018-11-29T16:20:26.947Z,-2.70
2018-11-29T16:22:56.339Z,-2.72
2018-11-29T16:25:25.514Z,-2.73
2018-11-29T16:27:54.694Z,-2.76
2018-11-29T16:30:28.426Z,-2.76
2018-11-29T16:32:59.426Z,-2.75
2018-11-29T16:35:28.624Z,-2.76
2018-11-29T16:37:57.792Z,-2.76
2018-11-29T16:40:26.951Z,-2.80
2018-11-29T16:42:56.116Z,-2.78
2018-11-29T16:45:25.313Z,-2.74
2018-11-29T16:47:54.483Z,-2.68
2018-11-29T16:50:23.754Z,-2.73
2018-11-29T16:52:52.972Z,-2.71
2018-11-29T16:55:22.138Z,-2.72
2018-11-29T16:57:53.120Z,-2.77
2018-11-29T17:00:23.163Z,-2.78
2018-11-29T17:02:52.450Z,-2.79
2018-11-29T17:05:22.839Z,-2.77
2018-11-29T17:07:52.094Z,-2.83
2018-11-29T17:10:22.354Z,-2.88
2018-11-29T17:12:55.991Z,-2.95
2018-11-29T17:15:25.288Z,-3.05
2018-11-29T17:17:54.469Z,-3.11
2018-11-29T17:20:23.769Z,-2.98
2018-11-29T17:22:53.109Z,-2.89
2018-11-29T17:25:22.273Z,-2.88
2018-11-29T17:27:51.459Z,-2.89
2018-11-29T17:30:23.078Z,-3.00
2018-11-29T17:32:53.336Z,-2.97
2018-11-29T17:35:22.496Z,-3.00
2018-11-29T17:37:51.916Z,-2.94
2018-11-29T17:40:22.524Z,-2.87
2018-11-29T17:42:53.221Z,-2.90
2018-11-29T17:45:23.284Z,-2.95
2018-11-29T17:47:53.716Z,-3.17
2018-11-29T17:50:25.291Z,-2.90
2018-11-29T17:52:54.470Z,-2.98
2018-11-29T17:55:23.664Z,-3.00
2018-11-29T17:57:52.899Z,-2.99
2018-11-29T18:00:23.403Z,-2.97
2018-11-29T18:02:52.613Z,-3.01
2018-11-29T18:05:21.785Z,-3.00
2018-11-29T18:07:51.108Z,-3.05
2018-11-29T18:10:23.554Z,-3.09
2018-11-29T18:12:56.384Z,-3.03
2018-11-29T18:15:28.200Z,-2.97
2018-11-29T18:17:57.383Z,-2.97
2018-11-29T18:20:26.562Z,-2.91
2018-11-29T18:22:55.730Z,-2.91
2018-11-29T18:25:24.923Z,-2.91
2018-11-29T18:27:54.131Z,-2.92
2018-11-29T18:30:23.739Z,-2.91
2018-11-29T18:32:52.924Z,-2.87
2018-11-29T18:35:22.133Z,-2.96
2018-11-29T18:37:51.356Z,-2.95
2018-11-29T18:40:21.491Z,-2.94
2018-11-29T18:42:54.988Z,-2.90
2018-11-29T18:45:24.226Z,-2.88
2018-11-29T18:47:53.992Z,-2.89
2018-11-29T18:50:25.040Z,-2.90
2018-11-29T18:52:54.369Z,-2.91
2018-11-29T18:55:24.531Z,-2.94
2018-11-29T18:57:54.213Z,-3.02
2018-11-29T19:00:32.454Z,-3.02
2018-11-29T19:03:01.634Z,-3.01
2018-11-29T19:05:30.800Z,-3.05
2018-11-29T19:07:59.963Z,-3.09
2018-11-29T19:10:29.138Z,-3.06
2018-11-29T19:13:01.719Z,-3.07
2018-11-29T19:15:30.887Z,-3.07
2018-11-29T19:18:00.076Z,-3.05
2018-11-29T19:20:29.252Z,-3.03
2018-11-29T19:22:59.386Z,-3.06
2018-11-29T19:25:28.562Z,-3.08
2018-11-29T19:27:58.355Z,-3.05
2018-11-29T19:30:29.464Z,-3.06
2018-11-29T19:33:31.674Z,-3.09
2018-11-29T19:36:00.847Z,-3.09
2018-11-29T19:38:30.027Z,-3.14
2018-11-29T19:40:59.190Z,-3.13
2018-11-29T19:43:28.448Z,-3.13
2018-11-29T19:45:57.638Z,-3.13
2018-11-29T19:48:26.818Z,-3.14
2018-11-29T19:50:56.106Z,-3.14
2018-11-29T19:53:26.442Z,-3.09
2018-11-29T19:55:58.210Z,-3.11
2018-11-29T19:58:27.469Z,-3.14
2018-11-29T20:00:56.671Z,-3.18
2018-11-29T20:03:25.841Z,-3.15
2018-11-29T20:05:55.086Z,-3.13
2018-11-29T20:08:24.265Z,-3.11
2018-11-29T20:10:53.434Z,-3.13
2018-11-29T20:13:22.599Z,-3.12
2018-11-29T20:15:53.333Z,-3.16
2018-11-29T20:18:22.562Z,-3.20
2018-11-29T20:20:51.740Z,-3.27
2018-11-29T20:23:20.990Z,-3.33
2018-11-29T20:25:50.176Z,-3.38
2018-11-29T20:28:19.357Z,-3.35
2018-11-29T20:30:48.589Z,-3.43
2018-11-29T20:33:17.775Z,-3.35
2018-11-29T20:35:46.944Z,-3.39
2018-11-29T20:38:16.119Z,-3.40
2018-11-29T20:40:46.345Z,-3.37
2018-11-29T20:43:16.091Z,-3.35
2018-11-29T20:45:54.952Z,-3.33
2018-11-29T20:48:27.065Z,-3.33
2018-11-29T20:50:57.271Z,-3.43
2018-11-29T20:53:34.535Z,-3.38
2018-11-29T20:56:04.524Z,-3.41
2018-11-29T20:58:33.702Z,-3.46
2018-11-29T21:01:02.921Z,-3.42
2018-11-29T21:03:32.856Z,-3.43
2018-11-29T21:06:01.377Z,-3.45
2018-11-29T21:08:30.570Z,-3.48
2018-11-29T21:10:59.774Z,-3.44
2018-11-29T21:13:28.941Z,-3.42
2018-11-29T21:15:58.112Z,-3.42
2018-11-29T21:18:27.484Z,-3.52
2018-11-29T21:20:56.651Z,-3.55
2018-11-29T21:23:25.868Z,-3.57
2018-11-29T21:25:55.090Z,-3.62
2018-11-29T21:28:24.254Z,-3.62
2018-11-29T21:30:53.424Z,-3.63
2018-11-29T21:33:22.577Z,-3.64
2018-11-29T21:35:52.672Z,-3.57
2018-11-29T21:38:22.574Z,-3.59
2018-11-29T21:41:06.292Z,-3.63
2018-11-29T21:43:35.470Z,-3.68
2018-11-29T21:46:04.643Z,-3.70
2018-11-29T21:48:33.834Z,-3.68
2018-11-29T21:51:03.138Z,-3.69
2018-11-29T21:53:32.309Z,-3.79
2018-11-29T21:56:01.475Z,-3.83
2018-11-29T21:58:30.658Z,-3.83
2018-11-29T22:00:59.825Z,-3.80
2018-11-29T22:03:29.011Z,-3.79
2018-11-29T22:05:58.185Z,-3.90
2018-11-29T22:08:27.426Z,-3.84
2018-11-29T22:10:56.667Z,-3.85
2018-11-29T22:13:25.819Z,-3.92
2018-11-29T22:15:54.987Z,-3.89
2018-11-29T22:18:25.355Z,-3.92
2018-11-29T22:21:03.147Z,-3.97
2018-11-29T22:23:33.510Z,-3.91
2018-11-29T22:26:04.155Z,-3.88
2018-11-29T22:28:33.324Z,-3.90
2018-11-29T22:31:02.501Z,-3.84
2018-11-29T22:33:31.668Z,-3.88
2018-11-29T22:36:00.842Z,-3.90
2018-11-29T22:38:30.013Z,-3.96
2018-11-29T22:40:59.182Z,-3.93
2018-11-29T22:43:28.359Z,-4.00
2018-11-29T22:45:57.534Z,-3.99
2018-11-29T22:48:26.788Z,-4.04
2018-11-29T22:50:55.939Z,-4.07
2018-11-29T22:53:25.093Z,-4.01
2018-11-29T22:55:54.261Z,-4.03
2018-11-29T22:58:23.424Z,-4.02
2018-11-29T23:00:53.064Z,-4.07
2018-11-29T23:03:22.434Z,-3.99
2018-11-29T23:05:51.666Z,-3.97
2018-11-29T23:08:20.839Z,-3.98
2018-11-29T23:10:49.985Z,-4.03
2018-11-29T23:13:19.162Z,-4.08
2018-11-29T23:15:48.318Z,-4.00
2018-11-29T23:18:17.532Z,-4.02
2018-11-29T23:20:46.715Z,-3.99
2018-11-29T23:23:15.872Z,-3.99
2018-11-29T23:25:45.042Z,-4.05
2018-11-29T23:28:14.263Z,-4.06
2018-11-29T23:30:43.540Z,-3.94
2018-11-29T23:33:12.694Z,-3.98
2018-11-29T23:35:41.884Z,-4.01
2018-11-29T23:38:11.045Z,-3.96
2018-11-29T23:40:40.233Z,-3.94
2018-11-29T23:43:09.413Z,-3.92
2018-11-29T23:45:38.642Z,-3.97
2018-11-29T23:48:07.816Z,-3.91
2018-11-29T23:50:37.026Z,-3.95
2018-11-29T23:53:06.387Z,-3.97
2018-11-29T23:55:35.551Z,-3.90
2018-11-29T23:58:04.720Z,-3.89
